Jamie Marie — WDE7178 — position and weather

sailwx.info

Track history (hours):
 
Tides and Currents Weather Stations Pressure Air Temp Water Temp Dewpoint Dewpoint Depression Visibility Wind Speed Wind Dir Waves Ship Positions

Jamie Marie

Owner: Jamie Marie, Inc., Aberdeen, WA. More information available from US FCC via Universal Licensing System and Coast Guard Vessel Documentation Center.

Last reported at 2016-Aug-30 23:33 UTC. Time now 2016-Aug-31 00:27 UTC.
Position N 46°54' W 124°06'.

Length 30 m.

Type: Fishing. MMSI: 366425240.

Date/timePositionNaut miles runAvg speedWind from/ knotsBaromVisibWave heightAir tempDewpointWater temp
2016-Aug-30 23:33N 46°54' W 124°06'0 0.0
2016-Aug-30 22:33N 46°54' W 124°06'0 0.0
2016-Aug-30 21:33N 46°54' W 124°06'0 0.0
2016-Aug-30 20:33N 46°54' W 124°06'0 0.0
2016-Aug-30 19:33N 46°54' W 124°06'0 0.0
2016-Aug-30 18:33N 46°54' W 124°06'0 0.2
2016-Aug-30 17:28N 46°55' W 124°07'0 0.0
2016-Aug-30 16:32N 46°55' W 124°07'0 0.2
2016-Aug-30 15:32N 46°55' W 124°06'7 7.4
2016-Aug-30 14:33N 46°58' W 124°15'7 6.7
2016-Aug-30 13:33N 47°04' W 124°21'7 7.2
2016-Aug-30 12:33N 47°10' W 124°27'8 7.9
2016-Aug-30 11:29N 47°16' W 124°35'39 1.3
2016-Aug-29 04:31N 47°47' W 125°12'3 3.0
2016-Aug-29 03:28N 47°45' W 125°08'3 2.4
2016-Aug-29 02:26N 47°48' W 125°08'3 2.8
2016-Aug-29 01:27N 47°50' W 125°11'3 3.1
2016-Aug-29 00:31N 47°52' W 125°14'2 2.1
2016-Aug-28 23:31N 47°51' W 125°11'9 6.3
2016-Aug-28 22:06N 47°43' W 125°05'12 7.6
2016-Aug-28 20:29N 47°31' W 125°01'8 8.6
2016-Aug-28 19:32N 47°27' W 124°50'8 7.7
2016-Aug-28 18:29N 47°19' W 124°52'7 4.8
2016-Aug-28 17:04N 47°13' W 124°55'4 2.6
2016-Aug-28 15:33N 47°09' W 124°54'5 3.1
2016-Aug-28 14:04N 47°06' W 124°58'1 1.4
2016-Aug-28 13:33N 47°06' W 124°57'4 2.0
2016-Aug-28 11:32N 47°04' W 124°52'7 7.5
2016-Aug-28 10:33N 47°02' W 124°41'7 7.3
2016-Aug-28 09:33N 46°60' W 124°31'7 7.4
2016-Aug-28 08:33N 46°57' W 124°21'8 8.0
2016-Aug-28 07:33N 46°55' W 124°10'2 2.1
2016-Aug-28 06:29N 46°54' W 124°06'0 0.0
2016-Aug-28 05:33N 46°54' W 124°06'0 0.0
2016-Aug-28 04:33N 46°54' W 124°06'0 0.0
2016-Aug-28 03:33N 46°54' W 124°06'0 0.0
2016-Aug-28 02:33N 46°54' W 124°06'0 0.0
2016-Aug-28 01:33N 46°54' W 124°06'0 0.0
2016-Aug-28 00:33N 46°54' W 124°06'0 0.0
2016-Aug-27 23:33N 46°54' W 124°06'0 0.0
2016-Aug-27 22:33N 46°54' W 124°06'0 0.0
2016-Aug-27 21:28N 46°54' W 124°06'0 0.0
2016-Aug-27 20:30N 46°54' W 124°06'0 0.0
2016-Aug-27 19:32N 46°54' W 124°06'0 0.0
2016-Aug-27 18:30N 46°54' W 124°06'0 0.0
2016-Aug-27 17:32N 46°54' W 124°06'0 0.0
2016-Aug-27 16:30N 46°54' W 124°06'0 0.0
2016-Aug-27 15:32N 46°54' W 124°06'0 0.0
2016-Aug-27 14:33N 46°54' W 124°06'0 0.0
2016-Aug-27 13:33N 46°54' W 124°06'0 0.0
2016-Aug-27 12:33N 46°54' W 124°06'0 0.0
2016-Aug-27 11:33N 46°54' W 124°06'0 0.0
2016-Aug-27 10:33N 46°54' W 124°06'0 0.0
2016-Aug-27 09:32N 46°54' W 124°06'0 0.0
2016-Aug-27 08:30N 46°54' W 124°06'0 0.0
2016-Aug-27 07:33N 46°54' W 124°06'0 0.0
2016-Aug-27 06:33N 46°54' W 124°06'0 0.0
2016-Aug-27 04:33N 46°54' W 124°06'0 0.0
2016-Aug-27 03:33N 46°54' W 124°06'0 0.0
2016-Aug-27 02:33N 46°54' W 124°06'0 0.0
2016-Aug-27 01:33N 46°54' W 124°06'0 0.0
2016-Aug-27 00:34N 46°54' W 124°06'0 0.0
2016-Aug-26 23:33N 46°54' W 124°06'0 0.0
2016-Aug-26 22:33N 46°54' W 124°06'0 0.0
2016-Aug-26 21:33N 46°54' W 124°06'0 0.0
2016-Aug-26 20:33N 46°54' W 124°06'0 0.0
2016-Aug-26 19:33N 46°54' W 124°06'0 0.0
2016-Aug-26 18:33N 46°54' W 124°06'0 0.0
2016-Aug-26 17:33N 46°54' W 124°06'0 0.0
2016-Aug-26 16:33N 46°54' W 124°06'0 0.0
2016-Aug-26 15:33N 46°54' W 124°06'0 0.0
2016-Aug-26 14:33N 46°54' W 124°06'0 0.0
2016-Aug-26 13:33N 46°54' W 124°06'0 0.0
2016-Aug-26 12:33N 46°54' W 124°06'0 0.0
2016-Aug-26 11:33N 46°54' W 124°06'0 0.0
2016-Aug-26 10:34N 46°54' W 124°06'0 0.0
2016-Aug-26 09:33N 46°54' W 124°06'0 0.0
2016-Aug-26 08:33N 46°54' W 124°06'0 0.0
2016-Aug-26 07:33N 46°54' W 124°06'0 0.0
2016-Aug-26 06:33N 46°54' W 124°06'0 0.0
2016-Aug-26 04:33N 46°54' W 124°06'0 0.0
2016-Aug-26 03:33N 46°54' W 124°06'0 0.0
2016-Aug-26 02:30N 46°54' W 124°06'0 0.0
2016-Aug-26 01:33N 46°54' W 124°06'0 0.0
2016-Aug-26 00:33N 46°54' W 124°06'0 0.0
2016-Aug-25 23:33N 46°54' W 124°06'0 0.0
2016-Aug-25 22:33N 46°54' W 124°06'0 0.0
2016-Aug-25 21:33N 46°54' W 124°06'0 0.0
2016-Aug-25 20:33N 46°54' W 124°06'0 0.0
2016-Aug-25 19:33N 46°54' W 124°06'0 0.0
2016-Aug-25 18:33N 46°54' W 124°06'0 0.0
2016-Aug-25 17:33N 46°54' W 124°06'0 0.0
2016-Aug-25 16:29N 46°54' W 124°06'0 0.0
2016-Aug-25 15:33N 46°54' W 124°06'0 0.0
2016-Aug-25 14:33N 46°54' W 124°06'0 0.0
2016-Aug-25 13:33N 46°54' W 124°06'0 0.0
2016-Aug-25 12:33N 46°54' W 124°06'0 0.0
2016-Aug-25 11:33N 46°54' W 124°06'0 0.0
2016-Aug-25 10:33N 46°54' W 124°06'0 0.0
2016-Aug-25 09:33N 46°54' W 124°06'0 0.0
2016-Aug-25 08:33N 46°54' W 124°06'0 0.0
2016-Aug-25 07:33N 46°54' W 124°06'0 0.0
2016-Aug-25 06:33N 46°54' W 124°06'0 0.0
2016-Aug-25 04:33N 46°54' W 124°06'0 0.0
2016-Aug-25 03:33N 46°54' W 124°06'0 0.0
2016-Aug-25 02:33N 46°54' W 124°06'0 0.0
2016-Aug-25 01:30N 46°54' W 124°06'0 0.0
2016-Aug-25 00:33N 46°54' W 124°06'0 0.0
2016-Aug-24 23:32N 46°54' W 124°06'0 0.0
2016-Aug-24 22:33N 46°54' W 124°06'0 0.0
2016-Aug-24 21:33N 46°54' W 124°06'0 0.0
2016-Aug-24 20:26N 46°54' W 124°06'0 0.0
2016-Aug-24 19:33N 46°54' W 124°06'0 0.0
2016-Aug-24 18:33N 46°54' W 124°06'0 0.0
2016-Aug-24 17:33N 46°54' W 124°06'0 0.0
2016-Aug-24 16:33N 46°54' W 124°06'0 0.0
2016-Aug-24 15:33N 46°54' W 124°06'0 0.0
2016-Aug-24 14:34N 46°54' W 124°06'0 0.0
2016-Aug-24 13:33N 46°54' W 124°06'0 0.0
2016-Aug-24 12:33N 46°54' W 124°06'0 0.0
2016-Aug-24 11:33N 46°54' W 124°06'0 0.0
2016-Aug-24 10:33N 46°54' W 124°06'0 0.0
2016-Aug-24 09:33N 46°54' W 124°06'0 0.0
2016-Aug-24 08:33N 46°54' W 124°06'0 0.0
2016-Aug-24 07:33N 46°54' W 124°06'0 0.0
2016-Aug-24 06:33N 46°54' W 124°06'0 0.0
2016-Aug-24 04:33N 46°54' W 124°06'0 0.0
2016-Aug-24 03:33N 46°54' W 124°06'0 0.0
2016-Aug-24 02:34N 46°54' W 124°06'0 0.0
2016-Aug-24 01:23N 46°54' W 124°06'0 0.0
2016-Aug-24 00:25N 46°54' W 124°06'0 0.0
2016-Aug-23 23:26N 46°54' W 124°06'0 0.0
2016-Aug-23 22:33N 46°54' W 124°06'0 0.0
2016-Aug-23 21:33N 46°54' W 124°06'0 0.0
2016-Aug-23 20:33N 46°54' W 124°06'0 0.0
2016-Aug-23 19:33N 46°54' W 124°06'0 0.0
2016-Aug-23 18:18N 46°54' W 124°06'0 0.0
2016-Aug-23 17:33N 46°54' W 124°06'0 0.0
2016-Aug-23 16:33N 46°54' W 124°06'0 0.0
2016-Aug-23 15:29N 46°54' W 124°06'0 0.0
2016-Aug-23 14:33N 46°54' W 124°06'0 0.0
2016-Aug-23 13:33N 46°54' W 124°06'0 0.0
2016-Aug-23 12:34N 46°54' W 124°06'0 0.0
2016-Aug-23 11:33N 46°54' W 124°06'0 0.0
2016-Aug-23 10:33N 46°54' W 124°06'0 0.0
2016-Aug-23 09:33N 46°54' W 124°06'0 0.0
2016-Aug-23 08:33N 46°54' W 124°06'0 0.0
2016-Aug-23 07:33N 46°54' W 124°06'0 0.0
2016-Aug-23 06:33N 46°54' W 124°06'0 0.0
2016-Aug-23 05:33N 46°54' W 124°06'0 0.0
2016-Aug-23 04:33N 46°54' W 124°06'0 0.0
2016-Aug-23 03:33N 46°54' W 124°06'0 0.0
2016-Aug-23 02:21N 46°54' W 124°06'0 0.0
2016-Aug-23 01:19N 46°54' W 124°06'0 0.0
2016-Aug-23 00:33N 46°54' W 124°06'0 0.0
2016-Aug-22 23:33N 46°54' W 124°06'0 0.0
2016-Aug-22 22:33N 46°54' W 124°06'0 0.0
2016-Aug-22 21:33N 46°54' W 124°06'0 0.0
2016-Aug-22 20:33N 46°54' W 124°06'0 0.0
2016-Aug-22 19:34N 46°54' W 124°06'0 0.0
2016-Aug-22 18:33N 46°54' W 124°06'1 0.7
2016-Aug-22 17:33N 46°55' W 124°07'1 0.7
2016-Aug-22 16:33N 46°54' W 124°06'0 0.0
2016-Aug-22 15:33N 46°54' W 124°06'0 0.0
2016-Aug-22 14:33N 46°54' W 124°06'0 0.0
2016-Aug-22 13:34N 46°54' W 124°06'0 0.0
2016-Aug-22 12:33N 46°54' W 124°06'0 0.0
2016-Aug-22 11:33N 46°54' W 124°06'0 0.0
2016-Aug-22 10:33N 46°54' W 124°06'0 0.0
2016-Aug-22 09:33N 46°54' W 124°06'0 0.0
2016-Aug-22 08:33N 46°54' W 124°06'0 0.0
2016-Aug-22 07:33N 46°54' W 124°06'0 0.0
2016-Aug-22 06:34N 46°54' W 124°06'0 0.0
2016-Aug-22 05:33N 46°54' W 124°06'0 0.0
2016-Aug-22 04:33N 46°54' W 124°06'0 0.0
2016-Aug-22 03:33N 46°54' W 124°06'0 0.0
2016-Aug-22 02:14N 46°54' W 124°06'0 0.0
2016-Aug-22 01:34N 46°54' W 124°06'0 0.0
2016-Aug-22 00:33N 46°54' W 124°06'0 0.0
2016-Aug-21 23:21N 46°54' W 124°06'2 3.0
2016-Aug-21 22:33N 46°55' W 124°10'8 8.0
2016-Aug-21 21:33N 46°58' W 124°21'8 7.8
2016-Aug-21 20:33N 47°02' W 124°31'8 8.3
2016-Aug-21 19:33N 47°06' W 124°41'8 7.7
2016-Aug-21 18:33N 47°09' W 124°51'4 4.1
2016-Aug-21 17:33N 47°12' W 124°56'2 1.9
2016-Aug-21 16:33N 47°13' W 124°54'3 2.7
2016-Aug-21 15:34N 47°16' W 124°53'3 3.1
2016-Aug-21 14:33N 47°13' W 124°55'5 5.4
2016-Aug-21 13:33N 47°18' W 124°54'4 4.4
2016-Aug-21 12:34N 47°21' W 124°59'1 0.8
2016-Aug-21 11:33N 47°22' W 124°60'1 1.0
2016-Aug-21 10:33N 47°23' W 125°00'1 1.1
2016-Aug-21 09:29N 47°22' W 124°59'6 1.6
2016-Aug-21 06:07N 47°17' W 124°54'1 1.7
2016-Aug-21 05:32N 47°17' W 124°53'0 0.4
2016-Aug-21 04:33N 47°17' W 124°54'2 2.0
2016-Aug-21 03:32N 47°19' W 124°53'3 3.0
2016-Aug-21 02:33N 47°20' W 124°50'3 2.9
2016-Aug-21 01:34N 47°23' W 124°49'2 2.4
2016-Aug-21 00:33N 47°26' W 124°49'  
Track history (hours):
 
Tides and Currents Weather Stations Pressure Air Temp Water Temp Dewpoint Dewpoint Depression Visibility Wind Speed Wind Dir Waves Ship Positions

Jamie Marie

Owner: Jamie Marie, Inc., Aberdeen, WA. More information available from US FCC via Universal Licensing System and Coast Guard Vessel Documentation Center.

Last reported at 2016-Aug-30 23:33 UTC. Time now 2016-Aug-31 00:27 UTC.
Position N 46°54' W 124°06'.

Length 30 m.

Type: Fishing. MMSI: 366425240.

Date/timePositionNaut miles runAvg speedWind from/ knotsBaromVisibWave heightAir tempDewpointWater temp
2016-Aug-30 23:33N 46°54' W 124°06'0 0.0
2016-Aug-30 22:33N 46°54' W 124°06'0 0.0
2016-Aug-30 21:33N 46°54' W 124°06'0 0.0
2016-Aug-30 20:33N 46°54' W 124°06'0 0.0
2016-Aug-30 19:33N 46°54' W 124°06'0 0.0
2016-Aug-30 18:33N 46°54' W 124°06'0 0.2
2016-Aug-30 17:28N 46°55' W 124°07'0 0.0
2016-Aug-30 16:32N 46°55' W 124°07'0 0.2
2016-Aug-30 15:32N 46°55' W 124°06'7 7.4
2016-Aug-30 14:33N 46°58' W 124°15'7 6.7
2016-Aug-30 13:33N 47°04' W 124°21'7 7.2
2016-Aug-30 12:33N 47°10' W 124°27'8 7.9
2016-Aug-30 11:29N 47°16' W 124°35'39 1.3
2016-Aug-29 04:31N 47°47' W 125°12'3 3.0
2016-Aug-29 03:28N 47°45' W 125°08'3 2.4
2016-Aug-29 02:26N 47°48' W 125°08'3 2.8
2016-Aug-29 01:27N 47°50' W 125°11'3 3.1
2016-Aug-29 00:31N 47°52' W 125°14'2 2.1
2016-Aug-28 23:31N 47°51' W 125°11'9 6.3
2016-Aug-28 22:06N 47°43' W 125°05'12 7.6
2016-Aug-28 20:29N 47°31' W 125°01'8 8.6
2016-Aug-28 19:32N 47°27' W 124°50'8 7.7
2016-Aug-28 18:29N 47°19' W 124°52'7 4.8
2016-Aug-28 17:04N 47°13' W 124°55'4 2.6
2016-Aug-28 15:33N 47°09' W 124°54'5 3.1
2016-Aug-28 14:04N 47°06' W 124°58'1 1.4
2016-Aug-28 13:33N 47°06' W 124°57'4 2.0
2016-Aug-28 11:32N 47°04' W 124°52'7 7.5
2016-Aug-28 10:33N 47°02' W 124°41'7 7.3
2016-Aug-28 09:33N 46°60' W 124°31'7 7.4
2016-Aug-28 08:33N 46°57' W 124°21'8 8.0
2016-Aug-28 07:33N 46°55' W 124°10'2 2.1
2016-Aug-28 06:29N 46°54' W 124°06'0 0.0
2016-Aug-28 05:33N 46°54' W 124°06'0 0.0
2016-Aug-28 04:33N 46°54' W 124°06'0 0.0
2016-Aug-28 03:33N 46°54' W 124°06'0 0.0
2016-Aug-28 02:33N 46°54' W 124°06'0 0.0
2016-Aug-28 01:33N 46°54' W 124°06'0 0.0
2016-Aug-28 00:33N 46°54' W 124°06'0 0.0
2016-Aug-27 23:33N 46°54' W 124°06'0 0.0
2016-Aug-27 22:33N 46°54' W 124°06'0 0.0
2016-Aug-27 21:28N 46°54' W 124°06'0 0.0
2016-Aug-27 20:30N 46°54' W 124°06'0 0.0
2016-Aug-27 19:32N 46°54' W 124°06'0 0.0
2016-Aug-27 18:30N 46°54' W 124°06'0 0.0
2016-Aug-27 17:32N 46°54' W 124°06'0 0.0
2016-Aug-27 16:30N 46°54' W 124°06'0 0.0
2016-Aug-27 15:32N 46°54' W 124°06'0 0.0
2016-Aug-27 14:33N 46°54' W 124°06'0 0.0
2016-Aug-27 13:33N 46°54' W 124°06'0 0.0
2016-Aug-27 12:33N 46°54' W 124°06'0 0.0
2016-Aug-27 11:33N 46°54' W 124°06'0 0.0
2016-Aug-27 10:33N 46°54' W 124°06'0 0.0
2016-Aug-27 09:32N 46°54' W 124°06'0 0.0
2016-Aug-27 08:30N 46°54' W 124°06'0 0.0
2016-Aug-27 07:33N 46°54' W 124°06'0 0.0
2016-Aug-27 06:33N 46°54' W 124°06'0 0.0
2016-Aug-27 04:33N 46°54' W 124°06'0 0.0
2016-Aug-27 03:33N 46°54' W 124°06'0 0.0
2016-Aug-27 02:33N 46°54' W 124°06'0 0.0
2016-Aug-27 01:33N 46°54' W 124°06'0 0.0
2016-Aug-27 00:34N 46°54' W 124°06'0 0.0
2016-Aug-26 23:33N 46°54' W 124°06'0 0.0
2016-Aug-26 22:33N 46°54' W 124°06'0 0.0
2016-Aug-26 21:33N 46°54' W 124°06'0 0.0
2016-Aug-26 20:33N 46°54' W 124°06'0 0.0
2016-Aug-26 19:33N 46°54' W 124°06'0 0.0
2016-Aug-26 18:33N 46°54' W 124°06'0 0.0
2016-Aug-26 17:33N 46°54' W 124°06'0 0.0
2016-Aug-26 16:33N 46°54' W 124°06'0 0.0
2016-Aug-26 15:33N 46°54' W 124°06'0 0.0
2016-Aug-26 14:33N 46°54' W 124°06'0 0.0
2016-Aug-26 13:33N 46°54' W 124°06'0 0.0
2016-Aug-26 12:33N 46°54' W 124°06'0 0.0
2016-Aug-26 11:33N 46°54' W 124°06'0 0.0
2016-Aug-26 10:34N 46°54' W 124°06'0 0.0
2016-Aug-26 09:33N 46°54' W 124°06'0 0.0
2016-Aug-26 08:33N 46°54' W 124°06'0 0.0
2016-Aug-26 07:33N 46°54' W 124°06'0 0.0
2016-Aug-26 06:33N 46°54' W 124°06'0 0.0
2016-Aug-26 04:33N 46°54' W 124°06'0 0.0
2016-Aug-26 03:33N 46°54' W 124°06'0 0.0
2016-Aug-26 02:30N 46°54' W 124°06'0 0.0
2016-Aug-26 01:33N 46°54' W 124°06'0 0.0
2016-Aug-26 00:33N 46°54' W 124°06'0 0.0
2016-Aug-25 23:33N 46°54' W 124°06'0 0.0
2016-Aug-25 22:33N 46°54' W 124°06'0 0.0
2016-Aug-25 21:33N 46°54' W 124°06'0 0.0
2016-Aug-25 20:33N 46°54' W 124°06'0 0.0
2016-Aug-25 19:33N 46°54' W 124°06'0 0.0
2016-Aug-25 18:33N 46°54' W 124°06'0 0.0
2016-Aug-25 17:33N 46°54' W 124°06'0 0.0
2016-Aug-25 16:29N 46°54' W 124°06'0 0.0
2016-Aug-25 15:33N 46°54' W 124°06'0 0.0
2016-Aug-25 14:33N 46°54' W 124°06'0 0.0
2016-Aug-25 13:33N 46°54' W 124°06'0 0.0
2016-Aug-25 12:33N 46°54' W 124°06'0 0.0
2016-Aug-25 11:33N 46°54' W 124°06'0 0.0
2016-Aug-25 10:33N 46°54' W 124°06'0 0.0
2016-Aug-25 09:33N 46°54' W 124°06'0 0.0
2016-Aug-25 08:33N 46°54' W 124°06'0 0.0
2016-Aug-25 07:33N 46°54' W 124°06'0 0.0
2016-Aug-25 06:33N 46°54' W 124°06'0 0.0
2016-Aug-25 04:33N 46°54' W 124°06'0 0.0
2016-Aug-25 03:33N 46°54' W 124°06'0 0.0
2016-Aug-25 02:33N 46°54' W 124°06'0 0.0
2016-Aug-25 01:30N 46°54' W 124°06'0 0.0
2016-Aug-25 00:33N 46°54' W 124°06'0 0.0
2016-Aug-24 23:32N 46°54' W 124°06'0 0.0
2016-Aug-24 22:33N 46°54' W 124°06'0 0.0
2016-Aug-24 21:33N 46°54' W 124°06'0 0.0
2016-Aug-24 20:26N 46°54' W 124°06'0 0.0
2016-Aug-24 19:33N 46°54' W 124°06'0 0.0
2016-Aug-24 18:33N 46°54' W 124°06'0 0.0
2016-Aug-24 17:33N 46°54' W 124°06'0 0.0
2016-Aug-24 16:33N 46°54' W 124°06'0 0.0
2016-Aug-24 15:33N 46°54' W 124°06'0 0.0
2016-Aug-24 14:34N 46°54' W 124°06'0 0.0
2016-Aug-24 13:33N 46°54' W 124°06'0 0.0
2016-Aug-24 12:33N 46°54' W 124°06'0 0.0
2016-Aug-24 11:33N 46°54' W 124°06'0 0.0
2016-Aug-24 10:33N 46°54' W 124°06'0 0.0
2016-Aug-24 09:33N 46°54' W 124°06'0 0.0
2016-Aug-24 08:33N 46°54' W 124°06'0 0.0
2016-Aug-24 07:33N 46°54' W 124°06'0 0.0
2016-Aug-24 06:33N 46°54' W 124°06'0 0.0
2016-Aug-24 04:33N 46°54' W 124°06'0 0.0
2016-Aug-24 03:33N 46°54' W 124°06'0 0.0
2016-Aug-24 02:34N 46°54' W 124°06'0 0.0
2016-Aug-24 01:23N 46°54' W 124°06'0 0.0
2016-Aug-24 00:25N 46°54' W 124°06'0 0.0
2016-Aug-23 23:26N 46°54' W 124°06'0 0.0
2016-Aug-23 22:33N 46°54' W 124°06'0 0.0
2016-Aug-23 21:33N 46°54' W 124°06'0 0.0
2016-Aug-23 20:33N 46°54' W 124°06'0 0.0
2016-Aug-23 19:33N 46°54' W 124°06'0 0.0
2016-Aug-23 18:18N 46°54' W 124°06'0 0.0
2016-Aug-23 17:33N 46°54' W 124°06'0 0.0
2016-Aug-23 16:33N 46°54' W 124°06'0 0.0
2016-Aug-23 15:29N 46°54' W 124°06'0 0.0
2016-Aug-23 14:33N 46°54' W 124°06'0 0.0
2016-Aug-23 13:33N 46°54' W 124°06'0 0.0
2016-Aug-23 12:34N 46°54' W 124°06'0 0.0
2016-Aug-23 11:33N 46°54' W 124°06'0 0.0
2016-Aug-23 10:33N 46°54' W 124°06'0 0.0
2016-Aug-23 09:33N 46°54' W 124°06'0 0.0
2016-Aug-23 08:33N 46°54' W 124°06'0 0.0
2016-Aug-23 07:33N 46°54' W 124°06'0 0.0
2016-Aug-23 06:33N 46°54' W 124°06'0 0.0
2016-Aug-23 05:33N 46°54' W 124°06'0 0.0
2016-Aug-23 04:33N 46°54' W 124°06'0 0.0
2016-Aug-23 03:33N 46°54' W 124°06'0 0.0
2016-Aug-23 02:21N 46°54' W 124°06'0 0.0
2016-Aug-23 01:19N 46°54' W 124°06'0 0.0
2016-Aug-23 00:33N 46°54' W 124°06'0 0.0
2016-Aug-22 23:33N 46°54' W 124°06'0 0.0
2016-Aug-22 22:33N 46°54' W 124°06'0 0.0
2016-Aug-22 21:33N 46°54' W 124°06'0 0.0
2016-Aug-22 20:33N 46°54' W 124°06'0 0.0
2016-Aug-22 19:34N 46°54' W 124°06'0 0.0
2016-Aug-22 18:33N 46°54' W 124°06'1 0.7
2016-Aug-22 17:33N 46°55' W 124°07'1 0.7
2016-Aug-22 16:33N 46°54' W 124°06'0 0.0
2016-Aug-22 15:33N 46°54' W 124°06'0 0.0
2016-Aug-22 14:33N 46°54' W 124°06'0 0.0
2016-Aug-22 13:34N 46°54' W 124°06'0 0.0
2016-Aug-22 12:33N 46°54' W 124°06'0 0.0
2016-Aug-22 11:33N 46°54' W 124°06'0 0.0
2016-Aug-22 10:33N 46°54' W 124°06'0 0.0
2016-Aug-22 09:33N 46°54' W 124°06'0 0.0
2016-Aug-22 08:33N 46°54' W 124°06'0 0.0
2016-Aug-22 07:33N 46°54' W 124°06'0 0.0
2016-Aug-22 06:34N 46°54' W 124°06'0 0.0
2016-Aug-22 05:33N 46°54' W 124°06'0 0.0
2016-Aug-22 04:33N 46°54' W 124°06'0 0.0
2016-Aug-22 03:33N 46°54' W 124°06'0 0.0
2016-Aug-22 02:14N 46°54' W 124°06'0 0.0
2016-Aug-22 01:34N 46°54' W 124°06'0 0.0
2016-Aug-22 00:33N 46°54' W 124°06'0 0.0
2016-Aug-21 23:21N 46°54' W 124°06'2 3.0
2016-Aug-21 22:33N 46°55' W 124°10'8 8.0
2016-Aug-21 21:33N 46°58' W 124°21'8 7.8
2016-Aug-21 20:33N 47°02' W 124°31'8 8.3
2016-Aug-21 19:33N 47°06' W 124°41'8 7.7
2016-Aug-21 18:33N 47°09' W 124°51'4 4.1
2016-Aug-21 17:33N 47°12' W 124°56'2 1.9
2016-Aug-21 16:33N 47°13' W 124°54'3 2.7
2016-Aug-21 15:34N 47°16' W 124°53'3 3.1
2016-Aug-21 14:33N 47°13' W 124°55'5 5.4
2016-Aug-21 13:33N 47°18' W 124°54'4 4.4
2016-Aug-21 12:34N 47°21' W 124°59'1 0.8
2016-Aug-21 11:33N 47°22' W 124°60'1 1.0
2016-Aug-21 10:33N 47°23' W 125°00'1 1.1
2016-Aug-21 09:29N 47°22' W 124°59'6 1.6
2016-Aug-21 06:07N 47°17' W 124°54'1 1.7
2016-Aug-21 05:32N 47°17' W 124°53'0 0.4
2016-Aug-21 04:33N 47°17' W 124°54'2 2.0
2016-Aug-21 03:32N 47°19' W 124°53'3 3.0
2016-Aug-21 02:33N 47°20' W 124°50'3 2.9
2016-Aug-21 01:34N 47°23' W 124°49'2 2.4
2016-Aug-21 00:33N 47°26' W 124°49'  

Dump ship's entire track history